Time;durP1;ratioP1;P1;durP2;ratioP2;P2;SDS_P1;SDS_P2;PMS_P1;PMS_P2;Temp;Humidity;BMP_temperature;BMP_pressure;BME280_temperature;BME280_humidity;BME280_pressure;Samples;Min_cycle;Max_cycle;Signal;HPM_P1;HPM_P2
2021/06/15 09:56:42;;;;;;;1133.95;999.90;;;21.50;99.90;;;;;;5147598;27;20521;-68
2021/06/15 09:59:07;;;;;;;1214.32;999.90;;;21.50;99.90;;;;;;5131646;28;20173;-68
2021/06/15 10:01:42;;;;;;;1246.93;999.90;;;21.60;99.90;;;;;;5131550;28;20185;-69
2021/06/15 10:04:17;;;;;;;1247.30;999.90;;;21.60;99.90;;;;;;5131648;27;20209;-69
2021/06/15 10:06:54;;;;;;;1259.40;999.90;;;21.70;99.90;;;;;;5131588;28;20161;-70
2021/06/15 10:09:35;;;;;;;1261.00;999.90;;;21.80;99.90;;;;;;5130204;28;20266;-66
2021/06/15 10:12:01;;;;;;;1256.07;999.90;;;21.90;99.90;;;;;;5130043;28;20170;-66
2021/06/15 10:14:28;;;;;;;1252.20;999.90;;;21.90;99.90;;;;;;5131023;28;20169;-67
2021/06/15 10:16:55;;;;;;;1262.20;999.90;;;22.00;99.90;;;;;;5131256;28;20178;-68
2021/06/15 10:19:21;;;;;;;1241.78;999.90;;;22.10;99.90;;;;;;5131245;28;20162;-67
2021/06/15 10:21:47;;;;;;;1245.10;999.90;;;22.10;99.90;;;;;;5131248;28;20226;-67
2021/06/15 10:24:14;;;;;;;1227.63;999.90;;;22.20;99.90;;;;;;5131017;28;20158;-67
2021/06/15 10:26:41;;;;;;;1231.72;999.90;;;22.20;99.90;;;;;;5130935;28;20154;-68
2021/06/15 10:29:12;;;;;;;1270.75;999.90;;;22.20;99.90;;;;;;5131038;27;20254;-67
2021/06/15 10:31:40;;;;;;;1236.38;999.90;;;22.30;99.90;;;;;;5130801;28;20657;-67
2021/06/15 10:34:06;;;;;;;1238.82;999.90;;;22.40;99.90;;;;;;5131058;28;20174;-66
2021/06/15 10:36:39;;;;;;;1215.20;999.90;;;22.50;99.90;;;;;;5130590;28;20206;-66
2021/06/15 10:39:09;;;;;;;1245.85;999.90;;;22.50;99.90;;;;;;5130997;28;20170;-66
2021/06/15 10:41:34;;;;;;;1177.55;999.90;;;22.50;99.90;;;;;;5130901;28;20162;-65
2021/06/15 10:44:01;;;;;;;1223.90;999.90;;;22.50;99.90;;;;;;5129462;28;20654;-66
2021/06/15 10:46:30;;;;;;;1154.45;999.90;;;22.50;99.90;;;;;;5130686;27;20186;-66
2021/06/15 10:48:57;;;;;;;1116.00;999.90;;;22.50;99.90;;;;;;5130694;28;20170;-66
2021/06/15 10:51:25;;;;;;;1122.75;999.90;;;22.50;99.90;;;;;;5130689;28;20166;-66
2021/06/15 10:53:52;;;;;;;1116.25;999.90;;;22.50;99.90;;;;;;5130566;28;20172;-65
2021/06/15 10:56:21;;;;;;;1089.18;998.83;;;22.50;99.90;;;;;;5130206;28;20682;-65
2021/06/15 10:58:56;;;;;;;1111.68;999.90;;;22.50;99.90;;;;;;5130503;27;20162;-65
2021/06/15 11:01:23;;;;;;;1088.53;999.08;;;22.60;99.90;;;;;;5130465;28;20650;-67
2021/06/15 11:04:05;;;;;;;1094.15;999.75;;;22.60;99.90;;;;;;5130361;28;20178;-65
2021/06/15 11:06:30;;;;;;;1066.82;985.30;;;22.60;99.90;;;;;;5125493;28;20169;-66
2021/06/15 11:09:17;;;;;;;1112.13;999.90;;;22.60;99.90;;;;;;5116429;28;20237;-67
2021/06/15 11:11:49;;;;;;;1119.55;999.90;;;22.80;99.90;;;;;;5116426;28;20261;-67
2021/06/15 11:14:20;;;;;;;1099.35;999.90;;;23.00;99.90;;;;;;5116261;28;20166;-67
2021/06/15 11:16:48;;;;;;;1057.45;976.47;;;23.20;99.90;;;;;;5116251;28;20270;-67
2021/06/15 11:19:14;;;;;;;1078.40;993.05;;;23.30;99.90;;;;;;5116182;28;20154;-67
2021/06/15 11:21:48;;;;;;;1097.88;999.90;;;23.30;99.90;;;;;;5116181;28;20162;-67
2021/06/15 11:24:29;;;;;;;1084.63;997.13;;;23.40;99.90;;;;;;5116204;28;20211;-67
2021/06/15 11:27:07;;;;;;;1036.18;958.35;;;23.40;99.90;;;;;;5116071;28;20662;-67
2021/06/15 11:29:37;;;;;;;1119.43;999.90;;;23.50;99.90;;;;;;5114769;28;20174;-67
2021/06/15 11:32:27;;;;;;;1100.00;999.90;;;23.60;99.90;;;;;;5116003;28;20497;-67
2021/06/15 11:34:58;;;;;;;1132.97;999.90;;;23.80;99.90;;;;;;5115615;28;20225;-67
2021/06/15 11:37:23;;;;;;;1143.90;999.90;;;24.10;99.90;;;;;;5115654;28;20190;-67
2021/06/15 11:39:51;;;;;;;1180.93;999.90;;;24.30;99.90;;;;;;5115870;28;20604;-67
2021/06/15 11:42:22;;;;;;;1068.20;985.70;;;24.50;99.90;;;;;;5115914;28;20158;-67
2021/06/15 11:44:56;;;;;;;1036.25;959.22;;;24.60;99.90;;;;;;5115849;28;20586;-67
2021/06/15 11:47:26;;;;;;;1128.72;999.90;;;24.30;99.90;;;;;;5115831;28;20166;-67
2021/06/15 11:50:21;;;;;;;1109.20;999.90;;;24.30;99.90;;;;;;5115635;28;20177;-67
2021/06/15 11:52:53;;;;;;;1125.95;999.90;;;24.60;99.90;;;;;;5115566;28;20630;-67
2021/06/15 11:55:23;;;;;;;1119.38;999.90;;;24.80;99.90;;;;;;5115446;28;20366;-69
2021/06/15 11:57:55;;;;;;;1158.43;999.90;;;25.00;99.90;;;;;;5115673;28;20165;-68
2021/06/15 12:00:22;;;;;;;1208.72;999.90;;;25.30;99.90;;;;;;5115102;28;20190;-66
2021/06/15 12:02:47;;;;;;;1115.53;999.90;;;25.50;99.90;;;;;;5115560;28;20159;-65
2021/06/15 12:05:16;;;;;;;1105.15;999.90;;;25.50;99.90;;;;;;5115527;28;20173;-64
2021/06/15 12:07:51;;;;;;;1091.10;997.85;;;25.30;99.90;;;;;;5115508;28;20706;-64
2021/06/15 12:10:18;;;;;;;1137.97;999.90;;;25.20;99.90;;;;;;5115125;28;20253;-64
2021/06/15 12:13:01;;;;;;;1176.68;999.90;;;25.40;99.90;;;;;;5115343;28;20171;-64
2021/06/15 12:15:43;;;;;;;1052.97;972.28;;;25.60;99.90;;;;;;5115298;28;20178;-64
2021/06/15 12:18:22;;;;;;;1090.45;998.50;;;25.40;99.90;;;;;;5114359;28;20163;-63
2021/06/15 12:20:50;;;;;;;1107.78;999.90;;;25.50;99.90;;;;;;5115211;28;20169;-63
2021/06/15 12:23:22;;;;;;;1120.25;999.90;;;25.70;99.90;;;;;;5115065;28;20173;-63
2021/06/15 12:25:48;;;;;;;1070.75;986.05;;;25.80;99.90;;;;;;5115074;28;20244;-64
2021/06/15 12:28:16;;;;;;;993.83;920.42;;;26.00;99.90;;;;;;5114828;28;20170;-63
2021/06/15 12:30:44;;;;;;;965.42;895.08;;;26.10;99.90;;;;;;5115041;28;20254;-63
2021/06/15 12:33:25;;;;;;;1057.47;973.85;;;26.00;99.90;;;;;;5115051;28;20170;-63
2021/06/15 12:35:56;;;;;;;1081.00;991.85;;;26.10;99.90;;;;;;5114938;28;20734;-67
2021/06/15 12:38:22;;;;;;;1123.18;999.90;;;26.30;99.90;;;;;;5114801;28;20532;-67
2021/06/15 12:40:47;;;;;;;1086.53;996.15;;;26.70;99.90;;;;;;5114872;28;20167;-67
2021/06/15 12:43:13;;;;;;;1084.55;990.97;;;26.90;99.90;;;;;;5114820;28;20173;-67
2021/06/15 12:45:40;;;;;;;1164.03;999.90;;;27.10;99.90;;;;;;5114723;28;20209;-67
2021/06/15 12:48:25;;;;;;;1180.03;999.90;;;27.20;99.90;;;;;;5114732;28;20178;-67
2021/06/15 12:51:06;;;;;;;1128.93;999.90;;;27.30;99.90;;;;;;5114664;28;20174;-66
2021/06/15 12:53:34;;;;;;;1198.95;999.90;;;27.10;99.90;;;;;;5114594;28;20166;-67
2021/06/15 12:56:10;;;;;;;1031.93;947.92;;;27.10;99.90;;;;;;5114425;28;20572;-66
2021/06/15 12:58:36;;;;;;;974.03;899.88;;;26.70;99.90;;;;;;5114554;28;20174;-66
2021/06/15 13:01:15;;;;;;;1038.78;955.17;;;26.40;99.90;;;;;;5114493;28;20163;-66
2021/06/15 13:03:43;;;;;;;994.42;918.88;;;26.20;99.90;;;;;;5114483;28;20151;-66
2021/06/15 13:06:12;;;;;;;968.17;897.03;;;25.80;99.90;;;;;;5114343;28;20198;-66
2021/06/15 13:08:39;;;;;;;1063.25;977.92;;;25.60;99.90;;;;;;5114296;28;20158;-66
2021/06/15 13:11:14;;;;;;;1035.25;954.72;;;25.80;99.90;;;;;;5114152;28;20162;-66
2021/06/15 13:13:54;;;;;;;906.15;843.13;;;25.90;99.90;;;;;;5112879;28;20636;-66
2021/06/15 13:16:20;;;;;;;1031.78;952.50;;;25.90;99.90;;;;;;5114205;28;20623;-66
2021/06/15 13:19:00;;;;;;;930.10;865.35;;;26.00;99.90;;;;;;5114195;28;20174;-66
2021/06/15 13:21:45;;;;;;;1056.55;973.75;;;26.10;99.90;;;;;;5114097;28;20658;-66
2021/06/15 13:24:13;;;;;;;953.83;885.35;;;26.50;99.90;;;;;;5114195;28;20162;-68
2021/06/15 13:26:39;;;;;;;878.75;818.92;;;26.70;99.90;;;;;;5113981;28;20198;-68
2021/06/15 13:29:05;;;;;;;945.90;877.78;;;26.90;99.90;;;;;;5112687;28;20528;-68
2021/06/15 13:31:30;;;;;;;772.15;722.78;;;27.10;99.90;;;;;;5113913;28;20272;-68
2021/06/15 13:34:11;;;;;;;712.35;668.10;;;27.10;99.90;;;;;;5114022;28;20173;-67
2021/06/15 13:36:38;;;;;;;826.88;772.22;;;26.90;99.90;;;;;;5113925;28;20166;-68
2021/06/15 13:39:17;;;;;;;796.22;744.97;;;26.80;99.90;;;;;;5113897;28;20190;-68
2021/06/15 13:41:53;;;;;;;889.97;828.83;;;26.90;99.90;;;;;;5113976;28;20168;-67
2021/06/15 13:44:30;;;;;;;894.28;832.08;;;27.10;99.90;;;;;;5113887;28;20166;-68
2021/06/15 13:46:55;;;;;;;857.08;799.15;;;27.30;99.90;;;;;;5113801;28;20181;-68
2021/06/15 13:49:21;;;;;;;957.97;888.05;;;27.50;99.90;;;;;;5113744;28;20167;-68
2021/06/15 13:51:46;;;;;;;765.20;716.72;;;27.80;99.90;;;;;;5113716;28;20193;-68
2021/06/15 13:54:12;;;;;;;824.97;770.85;;;27.90;99.90;;;;;;5113784;28;20174;-68
2021/06/15 13:56:44;;;;;;;892.70;831.17;;;27.80;99.90;;;;;;5113550;28;20214;-69
2021/06/15 13:59:11;;;;;;;878.65;818.78;;;28.20;99.90;;;;;;5113737;28;20198;-68
2021/06/15 14:01:36;;;;;;;896.05;833.70;;;28.50;99.90;;;;;;5112394;28;20219;-67
2021/06/15 14:04:03;;;;;;;933.10;866.38;;;28.70;99.90;;;;;;5113652;28;20178;-66
2021/06/15 14:06:30;;;;;;;969.33;897.97;;;29.00;99.90;;;;;;5113514;28;20204;-65
2021/06/15 14:08:56;;;;;;;956.95;886.50;;;29.40;99.90;;;;;;5113638;28;20668;-66
2021/06/15 14:11:22;;;;;;;720.72;676.13;;;29.60;99.90;;;;;;5113699;28;20253;-66
2021/06/15 14:13:47;;;;;;;914.40;849.60;;;29.60;99.90;;;;;;5113599;28;20650;-66
2021/06/15 14:16:13;;;;;;;860.90;801.58;;;29.50;99.90;;;;;;5113571;28;20159;-66
2021/06/15 14:18:39;;;;;;;921.63;855.92;;;29.60;99.90;;;;;;5113497;28;20171;-66
2021/06/15 14:21:06;;;;;;;902.65;838.88;;;29.50;99.90;;;;;;5113496;28;20162;-66
2021/06/15 14:23:32;;;;;;;1037.03;954.63;;;29.50;99.90;;;;;;5113535;28;20623;-66
2021/06/15 14:25:58;;;;;;;780.30;729.30;;;29.80;99.90;;;;;;5113189;28;20209;-65
2021/06/15 14:28:24;;;;;;;752.20;703.47;;;30.00;99.90;;;;;;5113579;28;20189;-66
2021/06/15 14:30:49;;;;;;;634.38;595.47;;;30.00;99.90;;;;;;5113420;28;20162;-66
2021/06/15 14:33:15;;;;;;;688.58;645.78;;;30.00;99.90;;;;;;5113636;28;20189;-66
2021/06/15 14:35:43;;;;;;;520.20;490.73;;;30.10;99.90;;;;;;5113412;28;20267;-66
2021/06/15 14:38:10;;;;;;;334.63;318.73;;;29.90;99.90;;;;;;5113335;28;20194;-66
2021/06/15 14:40:35;;;;;;;704.33;660.65;;;29.80;99.90;;;;;;5113364;28;20170;-66
2021/06/15 14:43:01;;;;;;;436.45;413.48;;;29.90;99.90;;;;;;5116262;28;20567;-66
2021/06/15 14:45:27;;;;;;;820.35;765.00;;;30.00;99.90;;;;;;5117042;28;20216;-65
2021/06/15 14:47:52;;;;;;;860.88;801.83;;;30.10;99.90;;;;;;5117097;28;20158;-65
2021/06/15 14:50:18;;;;;;;860.10;801.17;;;30.30;99.90;;;;;;5117077;28;20579;-65
2021/06/15 14:52:45;;;;;;;661.65;620.90;;;30.20;99.90;;;;;;5117005;28;20158;-65
2021/06/15 14:55:12;;;;;;;863.58;804.00;;;29.90;99.90;;;;;;5116781;28;20240;-65
2021/06/15 14:57:38;;;;;;;939.80;870.10;;;29.60;99.90;;;;;;5116892;28;20162;-65
2021/06/15 15:00:07;;;;;;;982.85;908.13;;;29.60;99.90;;;;;;5116845;28;20571;-65
2021/06/15 15:02:32;;;;;;;867.70;807.38;;;29.70;99.90;;;;;;5116767;28;20240;-65
2021/06/15 15:04:58;;;;;;;764.60;715.40;;;29.80;99.90;;;;;;5116728;28;20194;-65
2021/06/15 15:07:24;;;;;;;724.30;678.33;;;30.00;99.90;;;;;;5116622;28;20178;-66
2021/06/15 15:09:49;;;;;;;874.58;813.85;;;30.10;99.90;;;;;;5116709;28;20182;-66
2021/06/15 15:12:15;;;;;;;845.78;788.03;;;30.30;99.90;;;;;;5116622;28;20646;-65
2021/06/15 15:14:41;;;;;;;579.05;544.55;;;30.50;99.90;;;;;;5116335;28;20241;-65
2021/06/15 15:17:09;;;;;;;204.60;195.30;;;30.30;99.90;;;;;;5116496;28;20623;-65
2021/06/15 15:19:36;;;;;;;868.35;807.42;;;29.70;99.90;;;;;;5116330;28;20162;-66
2021/06/15 15:22:02;;;;;;;904.78;840.88;;;29.80;99.90;;;;;;5116450;28;20166;-66
2021/06/15 15:24:27;;;;;;;893.97;830.88;;;30.00;99.90;;;;;;5116374;28;20159;-66
2021/06/15 15:26:53;;;;;;;885.15;823.47;;;30.30;99.90;;;;;;5116375;28;20158;-65
2021/06/15 15:29:19;;;;;;;848.28;791.30;;;30.60;99.90;;;;;;5116259;28;20254;-65
2021/06/15 15:31:45;;;;;;;354.17;336.70;;;30.70;99.90;;;;;;5116325;28;20650;-64
2021/06/15 15:34:10;;;;;;;633.40;594.78;;;30.40;99.90;;;;;;5116264;28;20182;-65
2021/06/15 15:36:36;;;;;;;140.27;133.85;;;30.00;99.90;;;;;;5116165;28;20185;-65
2021/06/15 15:39:02;;;;;;;824.03;767.50;;;29.80;99.90;;;;;;5116046;28;20256;-65
2021/06/15 15:41:28;;;;;;;738.40;691.38;;;29.60;99.90;;;;;;5116047;28;20179;-65
2021/06/15 15:43:55;;;;;;;925.63;859.05;;;29.80;99.90;;;;;;5114664;28;20215;-65
2021/06/15 15:46:23;;;;;;;893.72;831.28;;;29.90;99.90;;;;;;5115938;28;20190;-66
2021/06/15 15:48:50;;;;;;;913.88;849.40;;;30.10;99.90;;;;;;5115810;28;20166;-65
2021/06/15 15:51:16;;;;;;;895.10;832.53;;;30.20;99.90;;;;;;5115949;28;20166;-66
2021/06/15 15:53:41;;;;;;;310.13;295.27;;;30.20;99.90;;;;;;5114404;28;20174;-66
2021/06/15 15:56:10;;;;;;;790.92;738.97;;;29.80;99.90;;;;;;5115672;28;20218;-65
2021/06/15 15:58:38;;;;;;;738.65;691.42;;;29.90;99.90;;;;;;5114484;28;20192;-65
2021/06/15 16:01:05;;;;;;;796.05;743.53;;;29.90;99.90;;;;;;5115747;28;20167;-65
2021/06/15 16:03:31;;;;;;;781.33;730.35;;;30.00;99.90;;;;;;5115542;28;20650;-66
2021/06/15 16:05:57;;;;;;;643.05;603.72;;;30.40;99.90;;;;;;5114313;28;20559;-65
2021/06/15 16:08:22;;;;;;;809.05;755.15;;;30.50;99.90;;;;;;5115596;28;20169;-65
2021/06/15 16:10:48;;;;;;;770.38;720.65;;;30.50;99.90;;;;;;5115500;28;20167;-65
2021/06/15 16:13:13;;;;;;;733.70;687.25;;;30.60;99.90;;;;;;5115436;28;20202;-65
2021/06/15 16:15:40;;;;;;;698.00;654.22;;;30.60;99.90;;;;;;5115461;28;20175;-67
2021/06/15 16:18:07;;;;;;;625.10;587.03;;;30.60;99.90;;;;;;5115507;28;20166;-65
2021/06/15 16:20:33;;;;;;;647.90;608.38;;;30.70;99.90;;;;;;5114032;28;20667;-65
2021/06/15 16:23:02;;;;;;;538.22;507.85;;;30.60;99.90;;;;;;5115321;28;20205;-65
2021/06/15 16:25:27;;;;;;;677.58;635.58;;;30.50;99.90;;;;;;5115122;28;20648;-65
2021/06/15 16:27:53;;;;;;;775.45;725.00;;;30.30;99.90;;;;;;5115163;28;20257;-66
2021/06/15 16:30:20;;;;;;;772.13;722.35;;;30.30;99.90;;;;;;5115139;28;20245;-65
2021/06/15 16:32:46;;;;;;;520.28;491.08;;;30.50;99.90;;;;;;5114929;28;20529;-65
2021/06/15 16:35:13;;;;;;;778.80;728.13;;;30.50;99.90;;;;;;5114514;28;20200;-65
2021/06/15 16:37:40;;;;;;;795.60;743.42;;;30.50;99.90;;;;;;5113921;28;20162;-65
2021/06/15 16:40:07;;;;;;;941.55;873.15;;;30.50;99.90;;;;;;5114915;28;20175;-65
2021/06/15 16:42:33;;;;;;;971.13;897.75;;;30.60;99.90;;;;;;5114899;28;20182;-65
2021/06/15 16:45:00;;;;;;;849.67;792.45;;;30.80;99.90;;;;;;5114795;28;20198;-65
2021/06/15 16:47:26;;;;;;;893.95;831.42;;;30.60;99.90;;;;;;5114839;28;20659;-65
2021/06/15 16:49:51;;;;;;;797.42;745.25;;;30.70;99.90;;;;;;5114840;28;20170;-65
2021/06/15 16:52:17;;;;;;;961.63;890.58;;;30.80;99.90;;;;;;5114730;28;20253;-65
2021/06/15 16:54:42;;;;;;;821.70;766.47;;;31.00;99.90;;;;;;5114516;28;20263;-65
2021/06/15 16:57:08;;;;;;;739.75;692.47;;;30.90;99.90;;;;;;5114673;28;20683;-66
2021/06/15 16:59:34;;;;;;;681.67;639.30;;;31.00;99.90;;;;;;5114603;28;20197;-65
2021/06/15 17:01:59;;;;;;;828.42;773.60;;;30.80;99.90;;;;;;5114462;28;20211;-65
2021/06/15 17:04:25;;;;;;;892.22;829.88;;;30.90;99.90;;;;;;5113971;28;20182;-65
2021/06/15 17:06:51;;;;;;;1022.53;943.03;;;30.80;99.90;;;;;;5114322;28;20330;-65
2021/06/15 17:09:16;;;;;;;996.88;920.70;;;31.00;99.90;;;;;;5114869;28;20215;-65
2021/06/15 17:11:42;;;;;;;903.30;839.40;;;31.00;99.90;;;;;;5114348;28;20513;-65
2021/06/15 17:14:07;;;;;;;875.33;813.53;;;30.90;99.90;;;;;;5114318;28;20162;-65
2021/06/15 17:16:33;;;;;;;802.75;749.30;;;30.80;99.90;;;;;;5114322;28;20162;-66
2021/06/15 17:19:00;;;;;;;866.45;806.00;;;30.60;99.90;;;;;;5114314;28;20169;-66
2021/06/15 17:21:28;;;;;;;710.75;666.03;;;30.50;99.90;;;;;;5114208;28;20221;-66
2021/06/15 17:23:58;;;;;;;1004.95;927.30;;;30.10;99.90;;;;;;5114111;28;20166;-66
2021/06/15 17:26:24;;;;;;;818.22;764.00;;;30.00;99.90;;;;;;5114015;28;20265;-66
2021/06/15 17:28:50;;;;;;;424.25;401.95;;;30.00;99.90;;;;;;5114009;28;20215;-66
2021/06/15 17:31:15;;;;;;;779.75;729.03;;;29.40;99.90;;;;;;5114058;28;20552;-66
2021/06/15 17:33:41;;;;;;;790.20;738.20;;;29.20;99.90;;;;;;5114000;28;20167;-66
2021/06/15 17:36:07;;;;;;;817.20;763.17;;;29.00;99.90;;;;;;5113981;28;20173;-66
2021/06/15 17:38:32;;;;;;;1036.28;954.45;;;28.90;99.90;;;;;;5113887;28;20576;-66
2021/06/15 17:40:58;;;;;;;1106.53;999.90;;;28.80;99.90;;;;;;5112660;28;20185;-66
2021/06/15 17:43:24;;;;;;;1023.60;942.63;;;29.00;99.90;;;;;;5113893;28;20611;-66
2021/06/15 17:45:50;;;;;;;1018.60;940.10;;;29.00;99.90;;;;;;5113795;28;20198;-66
2021/06/15 17:48:16;;;;;;;917.83;851.72;;;29.20;99.90;;;;;;5113774;28;20163;-66
2021/06/15 17:50:42;;;;;;;947.55;878.20;;;28.90;99.90;;;;;;5112516;28;20163;-66
2021/06/15 17:53:09;;;;;;;979.55;906.30;;;28.60;99.90;;;;;;5113611;28;20182;-66
2021/06/15 17:55:37;;;;;;;946.05;876.90;;;28.30;99.90;;;;;;5113568;28;20218;-65
2021/06/15 17:58:03;;;;;;;852.05;794.78;;;28.00;99.90;;;;;;5113718;28;20239;-66
2021/06/15 18:00:35;;;;;;;1057.38;972.47;;;27.70;99.90;;;;;;5113765;28;20564;-66
2021/06/15 18:03:01;;;;;;;919.38;854.40;;;27.80;99.90;;;;;;5113618;28;20170;-64
2021/06/15 18:08:17;;;;;;;987.90;912.88;;;27.70;99.90;;;;;;5113585;28;20164;-64
2021/06/15 18:10:43;;;;;;;998.80;924.00;;;27.70;99.90;;;;;;5113520;28;20223;-67
2021/06/15 18:13:10;;;;;;;928.90;862.15;;;27.80;99.90;;;;;;5112114;28;20622;-67
2021/06/15 18:15:36;;;;;;;880.85;819.58;;;27.90;99.90;;;;;;5113429;28;20182;-67
2021/06/15 18:18:02;;;;;;;1039.18;956.05;;;27.70;99.90;;;;;;5116480;28;20173;-67
2021/06/15 18:20:28;;;;;;;874.13;813.80;;;27.70;99.90;;;;;;5117531;28;20220;-67
2021/06/15 18:22:54;;;;;;;1011.70;933.35;;;27.30;99.90;;;;;;5117550;28;20223;-67
2021/06/15 18:25:20;;;;;;;1018.90;939.15;;;27.10;99.90;;;;;;5117340;28;20243;-67
2021/06/15 18:27:47;;;;;;;1096.28;998.33;;;26.90;99.90;;;;;;5117395;28;20166;-65
2021/06/15 18:30:13;;;;;;;1079.93;989.78;;;26.80;99.90;;;;;;5115977;28;20676;-66
2021/06/15 18:32:39;;;;;;;1031.22;949.55;;;26.70;99.90;;;;;;5117214;28;20170;-67
2021/06/15 18:35:08;;;;;;;1059.18;973.42;;;26.60;99.90;;;;;;5117327;28;20169;-67
2021/06/15 18:37:33;;;;;;;1024.53;944.90;;;26.40;99.90;;;;;;5117130;28;20245;-67
2021/06/15 18:39:59;;;;;;;1043.10;960.03;;;26.40;99.90;;;;;;5117177;28;20198;-67
2021/06/15 18:42:27;;;;;;;999.10;924.65;;;26.40;99.90;;;;;;5117101;28;20171;-67
2021/06/15 18:44:53;;;;;;;1065.38;978.80;;;26.60;99.90;;;;;;5117006;28;20171;-67
2021/06/15 18:47:19;;;;;;;1052.60;968.78;;;26.70;99.90;;;;;;5116997;28;20167;-67
2021/06/15 18:49:44;;;;;;;1098.55;998.42;;;26.70;99.90;;;;;;5117016;28;20684;-65
2021/06/15 18:52:10;;;;;;;1111.25;999.90;;;26.80;99.90;;;;;;5116906;28;20163;-65
2021/06/15 18:54:36;;;;;;;1062.63;974.95;;;27.00;99.90;;;;;;5116667;28;20217;-65
2021/06/15 18:57:03;;;;;;;1080.82;990.50;;;26.80;99.90;;;;;;5116937;28;20528;-65
2021/06/15 18:59:28;;;;;;;1079.45;989.35;;;26.50;99.90;;;;;;5116815;28;20684;-65
2021/06/15 19:01:54;;;;;;;1074.95;985.55;;;26.20;99.90;;;;;;5116759;28;20170;-65
2021/06/15 19:04:20;;;;;;;1108.80;999.80;;;25.80;99.90;;;;;;5116638;28;20179;-65
2021/06/15 19:06:45;;;;;;;1144.50;999.90;;;25.40;99.90;;;;;;5116614;28;20251;-65
2021/06/15 19:09:11;;;;;;;1126.97;999.90;;;25.00;99.90;;;;;;5115376;28;20166;-64
2021/06/15 19:11:37;;;;;;;1105.90;999.90;;;24.70;99.90;;;;;;5116702;28;20242;-64
2021/06/15 19:14:02;;;;;;;1107.47;999.90;;;24.50;99.90;;;;;;5116560;28;20242;-64
2021/06/15 19:16:28;;;;;;;1092.82;998.95;;;24.40;99.90;;;;;;5116264;28;20181;-66
2021/06/15 19:18:54;;;;;;;1092.00;998.95;;;24.30;99.90;;;;;;5116392;28;20267;-66
2021/06/15 19:21:19;;;;;;;1065.57;983.13;;;24.20;99.90;;;;;;5116376;28;20229;-67
2021/06/15 19:23:47;;;;;;;1085.88;997.50;;;24.00;99.90;;;;;;5116387;28;20166;-67
2021/06/15 19:26:31;;;;;;;1078.75;994.67;;;23.90;99.90;;;;;;5116142;28;20194;-64
2021/06/15 19:28:56;;;;;;;1080.20;996.05;;;23.80;99.90;;;;;;5115172;28;20174;-64
2021/06/15 19:31:22;;;;;;;1050.78;971.97;;;23.60;99.90;;;;;;5116311;28;20671;-64
2021/06/15 19:33:48;;;;;;;1050.50;971.88;;;23.40;99.90;;;;;;5115898;28;20715;-64
